createdAt,value
2018-09-11T00:02:27.269Z,16.96
2018-09-11T00:04:56.592Z,16.93
2018-09-11T00:07:25.824Z,16.88
2018-09-11T00:09:55.016Z,16.88
2018-09-11T00:12:24.135Z,16.86
2018-09-11T00:14:53.383Z,16.84
2018-09-11T00:17:22.614Z,16.84
2018-09-11T00:19:51.919Z,16.91
2018-09-11T00:22:21.060Z,16.83
2018-09-11T00:24:50.232Z,16.83
2018-09-11T00:27:19.428Z,16.84
2018-09-11T00:29:48.614Z,16.81
2018-09-11T00:32:17.838Z,16.81
2018-09-11T00:34:47.085Z,16.83
2018-09-11T00:37:16.312Z,16.86
2018-09-11T00:39:45.454Z,16.88
2018-09-11T00:42:14.639Z,16.87
2018-09-11T00:44:43.904Z,16.85
2018-09-11T00:47:13.039Z,16.89
2018-09-11T00:49:42.223Z,16.88
2018-09-11T00:52:11.467Z,16.89
2018-09-11T00:54:40.647Z,16.93
2018-09-11T00:57:09.785Z,16.91
2018-09-11T00:59:38.963Z,16.91
2018-09-11T01:02:14.434Z,16.89
2018-09-11T01:04:43.579Z,16.89
2018-09-11T01:07:12.712Z,16.89
2018-09-11T01:09:41.943Z,16.91
2018-09-11T01:12:11.195Z,16.88
2018-09-11T01:14:40.462Z,16.90
2018-09-11T01:17:09.775Z,16.89
2018-09-11T01:19:39.027Z,16.88
2018-09-11T01:22:08.351Z,16.89
2018-09-11T01:24:37.542Z,16.87
2018-09-11T01:27:06.670Z,16.92
2018-09-11T01:29:35.801Z,16.93
2018-09-11T01:32:04.934Z,16.89
2018-09-11T01:34:36.899Z,16.90
2018-09-11T01:37:06.085Z,16.94
2018-09-11T01:39:35.206Z,16.92
2018-09-11T01:42:04.422Z,16.89
2018-09-11T01:44:33.683Z,16.93
2018-09-11T01:47:02.842Z,16.94
2018-09-11T01:49:32.063Z,16.93
2018-09-11T01:52:01.171Z,16.93
2018-09-11T01:54:30.323Z,16.91
2018-09-11T01:56:59.512Z,16.85
2018-09-11T01:59:28.646Z,16.85
2018-09-11T02:01:57.798Z,16.83
2018-09-11T02:04:26.969Z,16.84
2018-09-11T02:06:56.104Z,16.84
2018-09-11T02:09:25.326Z,16.86
2018-09-11T02:11:54.579Z,16.83
2018-09-11T02:14:23.695Z,16.85
2018-09-11T02:16:52.894Z,16.79
2018-09-11T02:19:22.103Z,16.79
2018-09-11T02:21:51.346Z,16.75
2018-09-11T02:24:20.563Z,16.76
2018-09-11T02:26:49.698Z,16.74
2018-09-11T02:29:18.807Z,16.72
2018-09-11T02:31:47.967Z,16.67
2018-09-11T02:34:17.125Z,16.60
2018-09-11T02:36:46.300Z,16.58
2018-09-11T02:39:15.559Z,16.52
2018-09-11T02:41:44.720Z,16.50
2018-09-11T02:44:13.962Z,16.48
2018-09-11T02:46:43.186Z,16.44
2018-09-11T02:49:12.322Z,16.43
2018-09-11T02:51:41.542Z,16.35
2018-09-11T02:54:10.714Z,16.31
2018-09-11T02:56:39.959Z,16.28
2018-09-11T02:59:09.063Z,16.25
2018-09-11T03:01:38.291Z,16.24
2018-09-11T03:04:07.439Z,16.25
2018-09-11T03:06:36.638Z,16.18
2018-09-11T03:09:06.759Z,16.19
2018-09-11T03:11:36.130Z,16.22
2018-09-11T03:14:05.283Z,16.21
2018-09-11T03:16:34.576Z,16.29
2018-09-11T03:19:03.711Z,16.31
2018-09-11T03:21:32.907Z,16.39
2018-09-11T03:24:02.072Z,16.39
2018-09-11T03:26:31.822Z,16.39
2018-09-11T03:29:01.079Z,16.45
2018-09-11T03:31:30.192Z,16.42
2018-09-11T03:33:59.419Z,16.51
2018-09-11T03:36:28.577Z,16.49
2018-09-11T03:38:57.791Z,16.48
2018-09-11T03:41:26.976Z,16.50
2018-09-11T03:43:56.084Z,16.51
2018-09-11T03:46:25.190Z,16.55
2018-09-11T03:48:54.387Z,16.57
2018-09-11T03:51:23.572Z,16.58
2018-09-11T03:53:52.676Z,16.60
2018-09-11T03:56:21.908Z,16.64
2018-09-11T03:58:51.163Z,16.67
2018-09-11T04:01:20.491Z,16.66
2018-09-11T04:03:49.739Z,16.64
2018-09-11T04:06:18.927Z,16.64
2018-09-11T04:08:48.064Z,16.63
2018-09-11T04:11:17.225Z,16.66
2018-09-11T04:13:46.472Z,16.68
2018-09-11T04:16:15.676Z,16.74
2018-09-11T04:18:44.904Z,16.72
2018-09-11T04:21:14.062Z,16.73
2018-09-11T04:23:43.215Z,16.75
2018-09-11T04:26:12.388Z,16.71
2018-09-11T04:28:41.627Z,16.74
2018-09-11T04:31:10.793Z,16.76
2018-09-11T04:33:40.015Z,16.78
2018-09-11T04:36:09.150Z,16.81
2018-09-11T04:38:38.268Z,16.77
2018-09-11T04:41:07.478Z,16.80
2018-09-11T04:43:36.587Z,16.81
2018-09-11T04:46:05.845Z,16.84
2018-09-11T04:48:35.046Z,16.84
2018-09-11T04:51:04.141Z,16.87
2018-09-11T04:53:33.339Z,16.86
2018-09-11T04:56:02.466Z,16.88
2018-09-11T04:58:31.738Z,16.82
2018-09-11T05:01:01.174Z,16.81
2018-09-11T05:03:30.427Z,16.83
2018-09-11T05:05:59.691Z,16.87
2018-09-11T05:08:28.892Z,16.88
2018-09-11T05:10:58.145Z,16.92
2018-09-11T05:13:27.648Z,16.94
2018-09-11T05:15:56.782Z,16.98
2018-09-11T05:18:25.949Z,16.95
2018-09-11T05:20:55.055Z,16.95
2018-09-11T05:23:24.176Z,16.99
2018-09-11T05:25:53.342Z,16.99
2018-09-11T05:28:22.537Z,16.98
2018-09-11T05:30:51.906Z,16.98
2018-09-11T05:33:21.082Z,17.05
2018-09-11T05:35:50.209Z,16.97
2018-09-11T05:38:19.359Z,16.96
2018-09-11T05:40:48.525Z,16.93
2018-09-11T05:43:17.640Z,16.98
2018-09-11T05:45:46.742Z,16.93
2018-09-11T05:48:15.996Z,16.93
2018-09-11T05:50:45.119Z,16.95
2018-09-11T05:53:14.379Z,16.94
2018-09-11T05:55:43.599Z,16.94
2018-09-11T05:58:12.841Z,16.93
2018-09-11T06:00:42.043Z,16.95
2018-09-11T06:03:11.287Z,16.98
2018-09-11T06:05:40.592Z,17.00
2018-09-11T06:08:09.727Z,16.95
2018-09-11T06:10:38.902Z,17.04
2018-09-11T06:13:08.222Z,17.07
2018-09-11T06:15:37.422Z,17.13
2018-09-11T06:18:06.863Z,17.21
2018-09-11T06:20:36.091Z,17.28
2018-09-11T06:23:05.573Z,17.36
2018-09-11T06:25:34.842Z,17.48
2018-09-11T06:28:04.195Z,17.61
2018-09-11T06:30:33.394Z,17.98
2018-09-11T06:33:02.607Z,18.16
2018-09-11T06:35:31.890Z,18.17
2018-09-11T06:38:01.066Z,18.13
2018-09-11T06:40:30.295Z,18.16
2018-09-11T06:42:59.533Z,18.25
2018-09-11T06:45:28.713Z,18.73
2018-09-11T06:47:57.967Z,18.97
2018-09-11T06:50:27.142Z,19.19
2018-09-11T06:52:56.327Z,19.55
2018-09-11T06:55:25.491Z,19.53
2018-09-11T06:57:54.689Z,19.72
2018-09-11T07:00:23.970Z,20.03
2018-09-11T07:02:53.166Z,20.24
2018-09-11T07:05:22.425Z,20.49
2018-09-11T07:07:51.626Z,20.20
2018-09-11T07:10:20.763Z,19.85
2018-09-11T07:12:49.983Z,19.96
2018-09-11T07:15:20.794Z,20.05
2018-09-11T07:17:50.019Z,20.16
2018-09-11T07:20:19.596Z,20.23
2018-09-11T07:22:48.580Z,19.89
2018-09-11T07:25:17.861Z,19.86
2018-09-11T07:27:47.079Z,19.88
2018-09-11T07:30:18.374Z,19.71
2018-09-11T07:32:47.534Z,19.74
2018-09-11T07:35:20.574Z,19.76
2018-09-11T07:37:49.738Z,19.83
2018-09-11T07:40:18.942Z,19.66
2018-09-11T07:42:48.195Z,19.62
2018-09-11T07:45:19.072Z,19.93
2018-09-11T07:47:48.340Z,20.20
2018-09-11T07:50:17.488Z,20.31
2018-09-11T07:52:46.657Z,21.02
2018-09-11T07:55:15.932Z,21.71
2018-09-11T07:57:45.213Z,22.10
2018-09-11T08:00:14.795Z,22.11
2018-09-11T08:02:43.959Z,22.35
2018-09-11T08:05:13.134Z,22.74
2018-09-11T08:07:42.296Z,23.24
2018-09-11T08:10:11.495Z,23.29
2018-09-11T08:12:40.631Z,23.52
2018-09-11T08:15:10.500Z,23.87
2018-09-11T08:17:39.698Z,23.93
2018-09-11T08:20:08.884Z,23.82
2018-09-11T08:22:38.040Z,23.87
2018-09-11T08:25:07.201Z,24.04
2018-09-11T08:27:36.440Z,23.95
2018-09-11T08:30:06.151Z,24.30
2018-09-11T08:32:35.338Z,24.62
2018-09-11T08:35:04.857Z,24.84
2018-09-11T08:37:35.016Z,24.72
2018-09-11T08:40:04.190Z,24.54
2018-09-11T08:42:33.481Z,24.35
2018-09-11T08:45:02.671Z,24.54
2018-09-11T08:47:31.796Z,24.94
2018-09-11T08:50:01.122Z,25.33
2018-09-11T08:52:30.442Z,25.36
2018-09-11T08:54:59.658Z,25.71
2018-09-11T08:57:28.856Z,25.82
2018-09-11T08:59:58.035Z,25.17
2018-09-11T09:02:27.159Z,25.45
2018-09-11T09:04:56.312Z,25.83
2018-09-11T09:07:25.527Z,26.49
2018-09-11T09:09:55.760Z,25.98
2018-09-11T09:12:24.959Z,26.01
2018-09-11T09:14:54.077Z,26.31
2018-09-11T09:17:23.198Z,25.78
2018-09-11T09:19:52.359Z,25.81
2018-09-11T09:22:21.587Z,25.66
2018-09-11T09:24:50.889Z,25.49
2018-09-11T09:27:20.046Z,25.98
2018-09-11T09:29:49.185Z,26.27
2018-09-11T09:32:18.343Z,26.83
2018-09-11T09:34:47.687Z,27.09
2018-09-11T09:37:16.888Z,26.91
2018-09-11T09:39:46.024Z,26.83
2018-09-11T09:42:15.158Z,27.27
2018-09-11T09:44:44.324Z,27.65
2018-09-11T09:47:13.478Z,27.60
2018-09-11T09:49:42.777Z,27.33
2018-09-11T09:52:11.983Z,27.60
2018-09-11T09:54:41.292Z,27.25
2018-09-11T09:57:10.566Z,27.25
2018-09-11T09:59:39.765Z,26.85
2018-09-11T10:02:14.205Z,26.99
2018-09-11T10:04:43.414Z,26.61
2018-09-11T10:07:12.547Z,26.78
2018-09-11T10:09:41.686Z,26.95
2018-09-11T10:12:11.953Z,26.73
2018-09-11T10:14:41.136Z,26.35
2018-09-11T10:17:10.964Z,26.34
2018-09-11T10:19:40.402Z,27.05
2018-09-11T10:22:09.592Z,27.79
2018-09-11T10:24:38.746Z,27.89
2018-09-11T10:27:08.295Z,27.07
2018-09-11T10:29:37.534Z,27.01
2018-09-11T10:32:06.748Z,27.03
2018-09-11T10:34:35.940Z,27.93
2018-09-11T10:37:05.064Z,28.06
2018-09-11T10:39:34.300Z,27.88
2018-09-11T10:42:03.541Z,27.73
2018-09-11T10:44:32.674Z,27.72
2018-09-11T10:47:01.842Z,28.36
2018-09-11T10:49:31.192Z,28.42
2018-09-11T10:52:00.340Z,28.82
2018-09-11T10:54:29.469Z,29.02
2018-09-11T10:56:58.940Z,28.51
2018-09-11T10:59:28.119Z,28.26
2018-09-11T11:01:57.251Z,28.27
2018-09-11T11:04:26.538Z,28.35
2018-09-11T11:06:55.716Z,28.71
2018-09-11T11:09:24.865Z,28.96
2018-09-11T11:11:54.020Z,28.33
2018-09-11T11:14:23.230Z,28.02
2018-09-11T11:16:52.488Z,28.89
2018-09-11T11:19:21.569Z,28.88
2018-09-11T11:21:50.930Z,28.82
2018-09-11T11:24:20.080Z,28.86
2018-09-11T11:26:49.282Z,29.11
2018-09-11T11:29:18.499Z,28.93
2018-09-11T11:31:47.654Z,29.30
2018-09-11T11:34:16.810Z,29.46
2018-09-11T11:36:46.076Z,29.70
2018-09-11T11:39:15.175Z,29.59
2018-09-11T11:41:44.353Z,29.61
2018-09-11T11:44:13.415Z,29.66
2018-09-11T11:46:42.631Z,29.82
2018-09-11T11:49:11.727Z,29.26
2018-09-11T11:51:41.071Z,29.99
2018-09-11T11:54:10.246Z,30.29
2018-09-11T11:56:39.479Z,30.27
2018-09-11T11:59:08.656Z,30.54
2018-09-11T12:01:37.918Z,30.22
2018-09-11T12:04:07.228Z,29.80
2018-09-11T12:06:36.434Z,29.23
2018-09-11T12:09:09.027Z,28.96
2018-09-11T12:11:38.229Z,29.10
2018-09-11T12:14:07.357Z,29.04
2018-09-11T12:16:36.522Z,28.90
2018-09-11T12:19:05.769Z,29.20
2018-09-11T12:21:34.934Z,29.23
2018-09-11T12:24:04.080Z,29.50
2018-09-11T12:26:33.295Z,29.41
2018-09-11T12:29:02.927Z,29.59
2018-09-11T12:31:32.090Z,29.07
2018-09-11T12:34:01.355Z,29.69
2018-09-11T12:36:30.589Z,29.72
2018-09-11T12:38:59.755Z,29.83
2018-09-11T12:41:28.922Z,29.74
2018-09-11T12:43:58.061Z,29.75
2018-09-11T12:46:27.626Z,29.68
2018-09-11T12:48:57.254Z,29.22
2018-09-11T12:51:26.419Z,29.03
2018-09-11T12:53:55.596Z,29.25
2018-09-11T12:56:24.741Z,29.42
2018-09-11T12:58:54.099Z,29.09
2018-09-11T13:01:23.239Z,29.28
2018-09-11T13:03:52.402Z,29.52
2018-09-11T13:06:21.702Z,29.94
2018-09-11T13:08:50.832Z,30.40
2018-09-11T13:11:19.975Z,30.05
2018-09-11T13:13:49.151Z,29.83
2018-09-11T13:16:18.285Z,29.99
2018-09-11T13:18:47.515Z,30.17
2018-09-11T13:21:16.726Z,29.77
2018-09-11T13:23:45.854Z,29.59
2018-09-11T13:26:15.035Z,29.28
2018-09-11T13:28:44.283Z,29.21
2018-09-11T13:31:13.522Z,29.26
2018-09-11T13:33:42.736Z,29.39
2018-09-11T13:36:11.827Z,29.77
2018-09-11T13:38:40.957Z,29.98
2018-09-11T13:41:10.180Z,30.27
2018-09-11T13:43:40.259Z,30.17
2018-09-11T13:46:09.471Z,30.25
2018-09-11T13:48:38.636Z,30.47
2018-09-11T13:51:07.778Z,30.25
2018-09-11T13:53:36.890Z,29.89
2018-09-11T13:56:06.232Z,29.59
2018-09-11T13:58:35.325Z,29.35
2018-09-11T14:01:04.589Z,29.54
2018-09-11T14:03:33.712Z,29.64
2018-09-11T14:06:02.883Z,29.75
2018-09-11T14:08:32.170Z,29.73
2018-09-11T14:11:01.283Z,29.81
2018-09-11T14:13:30.569Z,30.02
2018-09-11T14:15:59.739Z,30.13
2018-09-11T14:18:28.869Z,29.94
2018-09-11T14:20:58.031Z,29.55
2018-09-11T14:23:27.247Z,29.60
2018-09-11T14:25:56.408Z,29.67
2018-09-11T14:28:25.676Z,29.56
2018-09-11T14:30:54.787Z,29.34
2018-09-11T14:33:24.141Z,29.32
2018-09-11T14:35:53.306Z,29.33
2018-09-11T14:38:22.471Z,28.99
2018-09-11T14:40:51.769Z,28.81
2018-09-11T14:43:20.915Z,28.84
2018-09-11T14:45:50.273Z,28.79
2018-09-11T14:48:19.541Z,28.71
2018-09-11T14:50:48.756Z,28.65
2018-09-11T14:53:18.003Z,28.70
2018-09-11T14:55:47.179Z,28.72
2018-09-11T14:58:16.452Z,28.69
2018-09-11T15:00:45.660Z,28.54
2018-09-11T15:03:14.833Z,28.32
2018-09-11T15:05:43.973Z,28.44
2018-09-11T15:08:13.172Z,28.49
2018-09-11T15:10:42.370Z,28.12
2018-09-11T15:13:11.670Z,28.17
2018-09-11T15:15:40.868Z,28.01
2018-09-11T15:18:10.067Z,28.00
2018-09-11T15:20:39.294Z,27.97
2018-09-11T15:23:08.463Z,27.93
2018-09-11T15:25:37.748Z,28.02
2018-09-11T15:28:06.879Z,27.90
2018-09-11T15:30:36.208Z,27.73
2018-09-11T15:33:05.578Z,27.67
2018-09-11T15:35:34.775Z,27.58
2018-09-11T15:38:04.035Z,27.49
2018-09-11T15:40:33.277Z,27.51
2018-09-11T15:43:02.658Z,27.51
2018-09-11T15:45:31.873Z,27.46
2018-09-11T15:48:01.055Z,27.34
2018-09-11T15:50:30.211Z,27.39
2018-09-11T15:52:59.469Z,27.32
2018-09-11T15:55:28.591Z,27.15
2018-09-11T15:57:57.817Z,27.14
2018-09-11T16:00:27.093Z,27.11
2018-09-11T16:02:56.369Z,27.03
2018-09-11T16:05:25.706Z,27.03
2018-09-11T16:07:54.859Z,27.01
2018-09-11T16:10:24.635Z,27.00
2018-09-11T16:12:53.846Z,27.03
2018-09-11T16:15:23.519Z,26.99
2018-09-11T16:17:52.856Z,26.87
2018-09-11T16:20:22.110Z,26.88
2018-09-11T16:22:51.400Z,26.82
2018-09-11T16:25:20.677Z,26.83
2018-09-11T16:27:49.911Z,26.78
2018-09-11T16:30:19.800Z,26.78
2018-09-11T16:32:49.084Z,26.75
2018-09-11T16:35:18.294Z,26.72
2018-09-11T16:37:47.719Z,26.71
2018-09-11T16:40:16.887Z,26.67
2018-09-11T16:42:46.491Z,26.63
2018-09-11T16:45:16.470Z,26.59
2018-09-11T16:47:46.298Z,26.51
2018-09-11T16:50:15.938Z,26.49
2018-09-11T16:52:47.025Z,26.49
2018-09-11T16:55:17.314Z,26.45
2018-09-11T16:57:46.489Z,26.39
2018-09-11T17:00:16.104Z,26.39
2018-09-11T17:02:45.275Z,26.33
2018-09-11T17:05:14.514Z,26.27
2018-09-11T17:07:43.663Z,26.27
2018-09-11T17:10:12.891Z,26.18
2018-09-11T17:12:42.087Z,26.13
2018-09-11T17:15:11.940Z,26.03
2018-09-11T17:17:41.066Z,25.96
2018-09-11T17:20:10.400Z,25.95
2018-09-11T17:22:39.511Z,25.93
2018-09-11T17:25:08.857Z,25.93
2018-09-11T17:27:37.991Z,25.84
2018-09-11T17:30:08.029Z,25.81
2018-09-11T17:32:37.312Z,25.72
2018-09-11T17:35:06.547Z,25.64
2018-09-11T17:37:35.734Z,25.54
2018-09-11T17:40:04.939Z,25.47
2018-09-11T17:42:34.116Z,25.45
2018-09-11T17:45:03.444Z,25.43
2018-09-11T17:47:32.792Z,25.42
2018-09-11T17:50:01.998Z,25.37
2018-09-11T17:52:31.335Z,25.32
2018-09-11T17:55:00.672Z,25.31
2018-09-11T17:57:29.868Z,25.28
2018-09-11T17:59:59.755Z,25.21
2018-09-11T18:02:29.747Z,25.18
2018-09-11T18:04:58.923Z,25.11
2018-09-11T18:07:28.240Z,25.06
2018-09-11T18:09:57.526Z,25.01
2018-09-11T18:12:26.811Z,24.89
2018-09-11T18:14:56.078Z,24.85
2018-09-11T18:17:25.314Z,24.77
2018-09-11T18:19:54.579Z,24.68
2018-09-11T18:22:23.815Z,24.62
2018-09-11T18:24:52.987Z,24.58
2018-09-11T18:27:22.146Z,24.54
2018-09-11T18:29:51.514Z,24.50
2018-09-11T18:32:20.678Z,24.44
2018-09-11T18:34:49.976Z,24.35
2018-09-11T18:37:19.374Z,24.32
2018-09-11T18:39:48.551Z,24.24
2018-09-11T18:42:17.693Z,24.16
2018-09-11T18:44:46.854Z,24.17
2018-09-11T18:47:15.995Z,24.09
2018-09-11T18:49:45.231Z,24.04
2018-09-11T18:52:14.360Z,23.96
2018-09-11T18:54:43.524Z,23.94
2018-09-11T18:57:12.871Z,23.98
2018-09-11T18:59:42.119Z,23.89
2018-09-11T19:02:11.265Z,23.87
2018-09-11T19:04:40.520Z,23.77
2018-09-11T19:07:09.700Z,23.70
2018-09-11T19:09:38.872Z,23.65
2018-09-11T19:12:08.153Z,23.58
2018-09-11T19:14:37.508Z,23.52
2018-09-11T19:17:06.654Z,23.44
2018-09-11T19:19:35.863Z,23.37
2018-09-11T19:22:05.092Z,23.35
2018-09-11T19:24:34.267Z,23.20
2018-09-11T19:27:03.586Z,23.11
2018-09-11T19:29:32.878Z,23.06
2018-09-11T19:32:02.089Z,22.97
2018-09-11T19:34:32.216Z,22.92
2018-09-11T19:37:01.476Z,22.86
2018-09-11T19:39:30.764Z,22.77
2018-09-11T19:42:00.109Z,22.69
2018-09-11T19:44:29.354Z,22.63
2018-09-11T19:46:58.604Z,22.55
2018-09-11T19:49:27.840Z,22.52
2018-09-11T19:51:57.073Z,22.45
2018-09-11T19:54:26.367Z,22.40
2018-09-11T19:56:55.604Z,22.37
2018-09-11T19:59:24.860Z,22.34
2018-09-11T20:01:54.160Z,22.29
2018-09-11T20:04:23.357Z,22.26
2018-09-11T20:06:52.643Z,22.20
2018-09-11T20:09:21.820Z,22.20
2018-09-11T20:11:51.036Z,22.20
2018-09-11T20:14:20.311Z,22.20
2018-09-11T20:16:49.550Z,22.14
2018-09-11T20:19:18.886Z,22.12
2018-09-11T20:21:48.161Z,22.14
2018-09-11T20:24:17.605Z,22.12
2018-09-11T20:26:46.821Z,22.11
2018-09-11T20:29:16.042Z,22.05
2018-09-11T20:31:45.197Z,21.96
2018-09-11T20:34:14.407Z,21.86
2018-09-11T20:36:43.595Z,21.81
2018-09-11T20:39:13.299Z,21.78
2018-09-11T20:41:42.550Z,21.71
2018-09-11T20:44:11.924Z,21.64
2018-09-11T20:46:41.094Z,21.55
2018-09-11T20:49:10.431Z,21.49
2018-09-11T20:51:39.664Z,21.50
2018-09-11T20:54:08.834Z,21.50
2018-09-11T20:56:38.036Z,21.49
2018-09-11T20:59:07.244Z,21.45
2018-09-11T21:01:36.451Z,21.46
2018-09-11T21:04:05.740Z,21.45
2018-09-11T21:06:34.878Z,21.43
2018-09-11T21:09:04.911Z,21.39
2018-09-11T21:11:34.135Z,21.35
2018-09-11T21:14:03.266Z,21.37
2018-09-11T21:16:32.494Z,21.39
2018-09-11T21:19:01.765Z,21.32
2018-09-11T21:21:30.891Z,21.36
2018-09-11T21:24:00.449Z,21.34
2018-09-11T21:26:29.591Z,21.27
2018-09-11T21:28:58.812Z,21.26
2018-09-11T21:31:28.000Z,21.26
2018-09-11T21:33:57.165Z,21.25
2018-09-11T21:36:26.280Z,21.26
2018-09-11T21:38:55.481Z,21.22
2018-09-11T21:41:24.994Z,21.23
2018-09-11T21:43:54.178Z,21.15
2018-09-11T21:46:23.506Z,21.09
2018-09-11T21:48:52.603Z,21.06
2018-09-11T21:51:21.796Z,21.03
2018-09-11T21:53:50.974Z,21.00
2018-09-11T21:56:20.162Z,20.98
2018-09-11T21:58:49.301Z,20.99
2018-09-11T22:01:23.887Z,20.97
2018-09-11T22:03:53.187Z,20.93
2018-09-11T22:06:22.270Z,20.96
2018-09-11T22:08:51.415Z,20.85
2018-09-11T22:11:20.546Z,20.79
2018-09-11T22:13:49.744Z,20.71
2018-09-11T22:16:18.915Z,20.67
2018-09-11T22:18:48.074Z,20.64
2018-09-11T22:21:17.167Z,20.53
2018-09-11T22:23:46.312Z,20.50
2018-09-11T22:26:15.451Z,20.42
2018-09-11T22:28:44.576Z,20.37
2018-09-11T22:31:13.719Z,20.32
2018-09-11T22:33:42.907Z,20.28
2018-09-11T22:36:12.058Z,20.25
2018-09-11T22:38:41.256Z,20.20
2018-09-11T22:41:10.414Z,20.20
2018-09-11T22:43:39.620Z,20.17
2018-09-11T22:46:08.775Z,20.13
2018-09-11T22:48:38.058Z,20.11
2018-09-11T22:51:07.379Z,20.04
2018-09-11T22:53:36.846Z,20.01
2018-09-11T22:56:05.999Z,20.05
2018-09-11T22:58:35.190Z,19.98
2018-09-11T23:01:04.428Z,19.99
2018-09-11T23:03:33.591Z,19.92
2018-09-11T23:06:02.857Z,19.87
2018-09-11T23:08:31.976Z,19.84
2018-09-11T23:11:01.152Z,19.83
2018-09-11T23:13:30.453Z,19.80
2018-09-11T23:15:59.656Z,19.81
2018-09-11T23:18:28.984Z,19.87
2018-09-11T23:20:58.096Z,19.89
2018-09-11T23:23:27.258Z,19.92
2018-09-11T23:25:56.456Z,19.90
2018-09-11T23:28:25.758Z,19.96
2018-09-11T23:30:54.935Z,20.06
2018-09-11T23:33:24.066Z,20.11
2018-09-11T23:35:53.251Z,20.22
2018-09-11T23:38:22.453Z,20.26
2018-09-11T23:40:51.579Z,20.33
2018-09-11T23:43:20.727Z,20.39
2018-09-11T23:45:49.878Z,20.45
2018-09-11T23:48:19.135Z,20.49
2018-09-11T23:50:48.345Z,20.46
2018-09-11T23:53:17.519Z,20.49
2018-09-11T23:55:46.647Z,20.52
2018-09-11T23:58:15.746Z,20.55
